Time;durP1;ratioP1;P1;durP2;ratioP2;P2;SDS_P1;SDS_P2;PMS_P1;PMS_P2;Temp;Humidity;BMP_temperature;BMP_pressure;BME280_temperature;BME280_humidity;BME280_pressure;Samples;Min_cycle;Max_cycle;Signal;HPM_P1;HPM_P2
2023/03/10 00:00:04;;;;;;;18.88;17.55;;;;;;;7.86;78.68;96214.19;5033914;28;20444;-72
2023/03/10 00:02:33;;;;;;;20.00;18.17;;;;;;;7.89;78.76;96200.22;5034015;28;20404;-72
2023/03/10 00:04:58;;;;;;;19.10;17.52;;;;;;;7.90;78.53;96196.50;5033621;28;20025;-72
2023/03/10 00:07:23;;;;;;;17.23;15.68;;;;;;;7.94;78.89;96200.22;5035014;28;20561;-72
2023/03/10 00:09:49;;;;;;;16.98;15.55;;;;;;;7.92;78.60;96186.28;5035156;28;20094;-72
2023/03/10 00:12:14;;;;;;;16.42;15.13;;;;;;;7.96;78.33;96195.38;5033718;28;20034;-72
2023/03/10 00:14:39;;;;;;;15.48;14.07;;;;;;;7.92;78.45;96186.28;5033339;28;20484;-72
2023/03/10 00:17:05;;;;;;;13.20;12.13;;;;;;;7.92;77.47;96180.94;5034934;28;20116;-72
2023/03/10 00:19:30;;;;;;;13.73;12.60;;;;;;;7.95;77.45;96184.94;5033560;28;20027;-73
2023/03/10 00:21:56;;;;;;;12.73;11.65;;;;;;;7.92;76.84;96180.94;5033430;28;20485;-72
2023/03/10 00:24:21;;;;;;;11.63;10.63;;;;;;;7.93;76.65;96182.53;5034530;28;20112;-72
2023/03/10 00:26:48;;;;;;;11.48;10.38;;;;;;;7.87;76.79;96182.81;5033491;28;20038;-72
2023/03/10 00:29:13;;;;;;;12.45;11.35;;;;;;;7.83;77.53;96179.09;5033407;28;20026;-72
2023/03/10 00:31:39;;;;;;;12.45;11.00;;;;;;;7.81;77.33;96190.09;5034702;28;20040;-72
2023/03/10 00:34:06;;;;;;;13.05;11.75;;;;;;;7.83;77.13;96182.59;5016840;28;20021;-72
2023/03/10 00:36:32;;;;;;;12.13;9.93;;;;;;;7.82;76.33;96191.69;5033234;28;20159;-72
2023/03/10 00:39:04;;;;;;;11.02;9.20;;;;;;;7.90;76.09;96187.63;5016818;28;20055;-72
2023/03/10 00:41:35;;;;;;;10.43;9.38;;;;;;;7.86;76.26;96182.03;5033349;28;20067;-72
2023/03/10 00:44:01;;;;;;;10.07;9.07;;;;;;;7.86;76.28;96186.59;5016751;28;20039;-72
2023/03/10 00:46:26;;;;;;;10.38;9.32;;;;;;;7.89;75.70;96180.69;5033157;28;20447;-72
2023/03/10 00:48:52;;;;;;;9.32;8.52;;;;;;;7.91;75.35;96182.00;5016575;28;20029;-72
2023/03/10 00:51:27;;;;;;;10.60;7.82;;;;;;;7.96;75.12;96170.47;5033069;28;20063;-72
2023/03/10 00:53:53;;;;;;;10.93;8.68;;;;;;;7.88;75.75;96171.03;5032062;28;20515;-72
2023/03/10 00:56:24;;;;;;;8.52;7.68;;;;;;;7.93;76.17;96162.97;5032835;28;20042;-72
2023/03/10 00:58:51;;;;;;;10.25;7.78;;;;;;;7.95;75.01;96158.13;5032972;28;20033;-72
2023/03/10 01:01:36;;;;;;;11.65;7.35;;;;;;;8.01;75.06;96168.53;5016330;28;20021;-72
2023/03/10 01:04:04;;;;;;;9.40;8.40;;;;;;;7.96;75.80;96165.88;5032493;28;20029;-72
2023/03/10 01:06:30;;;;;;;13.60;8.15;;;;;;;7.98;75.38;96162.94;5016203;28;20025;-72
2023/03/10 01:08:55;;;;;;;8.95;8.05;;;;;;;7.98;75.30;96161.03;5016128;28;20048;-72
2023/03/10 01:11:24;;;;;;;8.77;7.22;;;;;;;8.01;74.90;96160.50;5016176;28;20022;-73
2023/03/10 01:13:49;;;;;;;11.00;8.32;;;;;;;7.95;75.32;96158.94;5015562;28;20060;-73
2023/03/10 01:16:15;;;;;;;9.68;8.70;;;;;;;7.87;76.40;96156.84;5032719;28;20057;-73
2023/03/10 01:18:42;;;;;;;11.13;10.00;;;;;;;7.92;77.16;96146.09;5015925;28;20055;-73
2023/03/10 01:21:14;;;;;;;11.57;10.50;;;;;;;7.94;76.70;96146.59;5016075;28;20021;-73
2023/03/10 01:23:39;;;;;;;11.23;10.13;;;;;;;7.96;75.33;96136.41;5033406;28;20038;-73
2023/03/10 01:26:05;;;;;;;10.10;9.05;;;;;;;7.93;76.11;96134.31;5032327;28;20071;-73
2023/03/10 01:28:30;;;;;;;11.65;8.80;;;;;;;7.94;75.86;96127.84;5033451;28;20116;-74
2023/03/10 01:30:56;;;;;;;10.07;8.13;;;;;;;7.97;75.88;96129.16;5033490;28;20028;-74
2023/03/10 01:33:21;;;;;;;8.52;7.72;;;;;;;8.03;75.75;96122.69;5026495;28;20033;-73
2023/03/10 01:35:46;;;;;;;12.30;9.15;;;;;;;8.06;75.38;96122.94;5038910;28;20731;-73
2023/03/10 01:38:12;;;;;;;10.27;9.20;;;;;;;8.04;75.38;96124.31;5032073;28;20041;-73
2023/03/10 01:40:38;;;;;;;10.15;9.18;;;;;;;8.04;76.23;96114.38;5032068;28;20041;-73
2023/03/10 01:43:16;;;;;;;8.60;7.90;;;;;;;8.16;75.26;96103.31;5002929;28;20543;-73
2023/03/10 01:45:44;;;;;;;8.27;7.47;;;;;;;8.06;76.00;96101.50;5028673;28;20128;-72
2023/03/10 01:48:12;;;;;;;8.38;7.68;;;;;;;8.13;74.80;96096.63;5031971;28;20033;-72
2023/03/10 01:50:38;;;;;;;9.15;7.38;;;;;;;8.12;75.24;96084.28;5031827;28;20033;-72
2023/03/10 01:53:05;;;;;;;8.75;7.95;;;;;;;8.11;75.10;96087.25;5012025;28;20504;-72
2023/03/10 01:55:34;;;;;;;8.95;6.90;;;;;;;8.18;74.30;96085.06;5027410;28;20061;-72
2023/03/10 01:58:00;;;;;;;8.10;7.13;;;;;;;8.08;74.87;96082.44;5031984;28;20052;-72
2023/03/10 02:00:28;;;;;;;9.57;6.72;;;;;;;8.07;74.24;96070.94;5014452;28;20033;-72
2023/03/10 02:03:18;;;;;;;8.32;6.25;;;;;;;8.09;75.16;96068.78;4996228;28;20444;-72
2023/03/10 02:06:07;;;;;;;7.78;7.07;;;;;;;8.08;74.33;96067.16;5011787;28;20030;-72
2023/03/10 02:08:38;;;;;;;8.35;7.55;;;;;;;8.09;74.82;96058.06;5024534;28;20417;-72
2023/03/10 02:11:04;;;;;;;7.80;6.93;;;;;;;8.14;73.86;96049.16;5011834;28;20068;-73
2023/03/10 02:13:29;;;;;;;7.85;5.50;;;;;;;8.11;74.41;96045.16;5014703;28;20091;-73
2023/03/10 02:15:55;;;;;;;11.98;7.25;;;;;;;8.11;74.86;96045.16;5015049;28;20041;-73
2023/03/10 02:18:21;;;;;;;7.32;6.30;;;;;;;8.11;74.83;96034.44;5031413;28;20591;-72
2023/03/10 02:21:11;;;;;;;7.53;6.35;;;;;;;8.16;74.77;96023.69;5014655;28;20040;-72
2023/03/10 02:23:41;;;;;;;7.88;6.00;;;;;;;8.15;73.70;96034.66;5030967;28;20125;-73
2023/03/10 02:26:35;;;;;;;8.00;7.25;;;;;;;8.12;75.09;96030.66;5001732;28;20564;-74
2023/03/10 02:29:02;;;;;;;12.00;7.65;;;;;;;8.09;74.45;96023.22;5021673;28;20033;-73
2023/03/10 02:31:28;;;;;;;8.05;6.82;;;;;;;8.10;74.93;96022.13;5018840;28;20512;-73
2023/03/10 02:33:54;;;;;;;7.43;6.55;;;;;;;8.13;75.63;96020.75;5023669;28;20140;-73
2023/03/10 02:36:22;;;;;;;7.70;6.72;;;;;;;8.12;75.08;96008.44;5011544;28;20235;-74
2023/03/10 02:38:49;;;;;;;8.38;7.57;;;;;;;8.13;74.08;96016.19;4998545;28;20412;-74
2023/03/10 02:41:35;;;;;;;9.82;7.60;;;;;;;8.10;74.46;96003.34;5014386;28;20029;-74
2023/03/10 02:44:05;;;;;;;6.80;5.95;;;;;;;8.16;74.11;95999.56;5014469;28;20040;-74
2023/03/10 02:46:30;;;;;;;8.10;7.30;;;;;;;8.15;75.08;95981.06;4998058;28;20040;-75
2023/03/10 02:49:01;;;;;;;10.65;8.23;;;;;;;8.18;73.92;95980.50;5014451;28;20030;-74
2023/03/10 02:51:38;;;;;;;8.70;7.80;;;;;;;8.14;74.92;95980.28;5015339;28;20370;-75
2023/03/10 02:54:09;;;;;;;9.27;8.38;;;;;;;8.02;75.93;95977.16;5014534;28;20037;-75
2023/03/10 02:56:36;;;;;;;10.02;9.15;;;;;;;8.01;76.00;95970.19;5014249;28;20132;-74
2023/03/10 02:59:03;;;;;;;9.75;8.35;;;;;;;7.96;75.63;95962.19;5014232;28;20082;-71
2023/03/10 03:01:29;;;;;;;8.38;7.57;;;;;;;8.05;75.18;95976.59;5014082;28;20044;-74
2023/03/10 03:03:55;;;;;;;9.18;8.20;;;;;;;8.06;75.13;95972.84;5013813;28;20112;-74
2023/03/10 03:06:21;;;;;;;9.23;8.52;;;;;;;8.05;75.78;95976.59;4997991;28;20029;-76
2023/03/10 03:08:47;;;;;;;10.68;9.60;;;;;;;8.03;76.27;95972.59;5014042;28;20025;-74
2023/03/10 03:11:15;;;;;;;13.07;11.85;;;;;;;7.96;77.03;95980.97;4998419;28;20025;-74
2023/03/10 03:13:41;;;;;;;13.75;12.75;;;;;;;7.97;77.40;95979.91;5013974;28;20366;-74
2023/03/10 03:16:08;;;;;;;16.42;14.98;;;;;;;7.93;77.66;95972.69;5013612;28;20033;-76
2023/03/10 03:18:35;;;;;;;18.10;17.00;;;;;;;7.92;78.98;95974.56;5014025;28;20477;-75
2023/03/10 03:21:05;;;;;;;22.98;21.48;;;;;;;7.82;80.15;95963.16;4994441;28;20448;-74
2023/03/10 03:23:32;;;;;;;27.25;25.85;;;;;;;7.75;81.31;95960.78;5013938;28;20025;-74
2023/03/10 03:25:58;;;;;;;28.80;27.33;;;;;;;7.73;81.12;95952.22;5013954;28;20025;-74
2023/03/10 03:28:24;;;;;;;29.95;28.38;;;;;;;7.81;81.75;95954.31;5013522;28;20037;-73
2023/03/10 03:30:51;;;;;;;34.03;32.30;;;;;;;7.80;81.92;95947.34;5014094;28;20358;-74
2023/03/10 03:33:16;;;;;;;30.50;29.00;;;;;;;7.79;81.98;95940.41;5029955;28;20053;-74
2023/03/10 03:35:44;;;;;;;32.63;30.95;;;;;;;7.76;82.55;95935.59;5013693;28;20017;-74
2023/03/10 03:38:09;;;;;;;31.75;30.05;;;;;;;7.74;82.88;95943.13;5030287;28;20115;-72
2023/03/10 03:40:36;;;;;;;33.15;31.55;;;;;;;7.76;83.21;95946.31;5030064;28;20026;-72
2023/03/10 03:43:03;;;;;;;31.85;30.45;;;;;;;7.69;82.77;95940.50;4997434;28;20036;-71
2023/03/10 03:45:31;;;;;;;33.85;32.22;;;;;;;7.71;83.27;95942.88;5013986;28;20427;-73
2023/03/10 03:47:57;;;;;;;33.08;31.42;;;;;;;7.60;82.26;95939.50;5030135;28;20088;-73
2023/03/10 03:50:24;;;;;;;34.67;32.67;;;;;;;7.61;82.93;95930.38;5029920;28;20017;-73
2023/03/10 03:52:52;;;;;;;34.45;32.65;;;;;;;7.62;83.03;95945.38;5013723;28;20030;-73
2023/03/10 03:55:20;;;;;;;34.00;32.30;;;;;;;7.57;83.63;95942.72;4997690;28;20025;-73
2023/03/10 03:57:49;;;;;;;33.55;31.80;;;;;;;7.47;82.56;95926.72;5013900;28;20041;-73
2023/03/10 04:00:19;;;;;;;35.10;33.13;;;;;;;7.61;83.10;95941.06;5029854;28;20075;-74
2023/03/10 04:02:47;;;;;;;40.30;37.30;;;;;;;7.43;84.09;95928.38;5013893;28;20068;-73
2023/03/10 04:05:13;;;;;;;52.72;47.50;;;;;;;7.48;83.62;95939.06;5029607;28;20053;-73
2023/03/10 04:07:40;;;;;;;44.58;41.03;;;;;;;7.42;83.64;95934.84;5013530;28;20036;-72
2023/03/10 04:10:13;;;;;;;35.78;33.67;;;;;;;7.44;84.21;95932.66;5013628;28;20018;-72
2023/03/10 04:12:38;;;;;;;37.50;35.55;;;;;;;7.32;84.96;95937.56;5013410;28;20037;-72
2023/03/10 04:15:07;;;;;;;36.95;35.03;;;;;;;7.34;84.35;95927.38;4996975;28;20056;-72
2023/03/10 04:17:33;;;;;;;34.08;32.08;;;;;;;7.38;84.27;95934.56;5013612;28;20037;-74
2023/03/10 04:19:58;;;;;;;36.35;34.45;;;;;;;7.33;85.65;95931.94;5013248;28;20120;-73
2023/03/10 04:22:25;;;;;;;37.83;35.78;;;;;;;7.33;86.53;95939.16;5013313;28;20033;-74
2023/03/10 04:24:52;;;;;;;36.20;34.17;;;;;;;7.30;86.02;95931.69;5013029;28;20034;-76
2023/03/10 04:27:18;;;;;;;34.55;32.70;;;;;;;7.37;86.84;95937.53;5014282;28;20048;-75
2023/03/10 04:29:44;;;;;;;34.08;32.17;;;;;;;7.31;86.62;95928.72;5016828;28;20492;-75
2023/03/10 04:32:10;;;;;;;35.63;33.60;;;;;;;7.30;87.90;95937.06;5034557;28;20038;-73
2023/03/10 04:34:38;;;;;;;34.97;33.17;;;;;;;7.24;88.40;95927.44;5017008;28;20028;-75
2023/03/10 04:37:04;;;;;;;36.85;34.95;;;;;;;7.30;87.37;95937.06;5033367;28;20033;-74
2023/03/10 04:39:30;;;;;;;32.20;30.50;;;;;;;7.23;88.67;95936.56;5016767;28;20025;-75
2023/03/10 04:41:56;;;;;;;34.50;32.40;;;;;;;7.38;88.13;95944.47;5016599;28;20037;-75
2023/03/10 04:44:21;;;;;;;34.42;32.40;;;;;;;7.24;88.75;95938.16;5016172;28;20108;-75
2023/03/10 04:46:47;;;;;;;35.88;33.85;;;;;;;7.21;88.96;95934.16;5016691;28;20034;-73
2023/03/10 04:49:14;;;;;;;35.83;33.72;;;;;;;7.27;88.39;95937.59;5032979;28;20025;-73
2023/03/10 04:51:41;;;;;;;35.08;33.22;;;;;;;7.26;88.88;95930.66;5016733;28;20040;-73
2023/03/10 04:54:06;;;;;;;35.03;32.88;;;;;;;7.19;88.85;95924.81;5016205;28;20029;-73
2023/03/10 04:56:32;;;;;;;36.20;34.15;;;;;;;7.23;88.54;95925.88;5000084;28;20056;-73
2023/03/10 04:58:57;;;;;;;36.03;33.97;;;;;;;7.17;88.37;95926.97;5016153;28;20025;-73
2023/03/10 05:01:24;;;;;;;34.90;33.00;;;;;;;7.13;89.70;95925.91;5026477;28;20044;-73
2023/03/10 05:03:55;;;;;;;37.70;35.38;;;;;;;7.15;88.97;95923.75;5018971;28;20029;-73
2023/03/10 05:06:21;;;;;;;36.00;33.75;;;;;;;7.10;89.41;95921.91;4999885;28;20040;-73
2023/03/10 05:09:06;;;;;;;37.13;34.88;;;;;;;7.05;90.00;95918.50;5033650;28;20675;-73
2023/03/10 05:11:33;;;;;;;38.47;36.45;;;;;;;7.13;89.35;95918.69;4999948;28;20057;-73
2023/03/10 05:13:58;;;;;;;39.92;37.60;;;;;;;7.15;89.19;95911.19;5015599;28;20051;-73
2023/03/10 05:16:24;;;;;;;39.92;37.53;;;;;;;7.00;89.02;95910.50;5066541;22;20475;-76
2023/03/10 05:18:51;;;;;;;41.33;39.10;;;;;;;7.01;88.97;95907.53;5036631;28;20080;-76
2023/03/10 05:21:21;;;;;;;40.78;38.67;;;;;;;7.11;89.40;95917.38;5036448;28;20040;-76
2023/03/10 05:23:46;;;;;;;41.10;38.85;;;;;;;7.10;88.66;95926.47;5019333;28;20025;-76
2023/03/10 05:26:13;;;;;;;42.38;39.75;;;;;;;7.12;89.17;95924.34;5019764;28;20029;-76
2023/03/10 05:28:39;;;;;;;42.60;39.85;;;;;;;7.16;87.96;95936.09;5016143;28;20027;-75
2023/03/10 05:31:10;;;;;;;41.50;39.13;;;;;;;7.11;88.23;95923.53;5016923;28;20041;-76
2023/03/10 05:33:37;;;;;;;43.53;40.78;;;;;;;7.14;88.56;95919.50;5032490;28;20044;-76
2023/03/10 05:36:05;;;;;;;41.50;39.30;;;;;;;7.10;88.29;95905.88;5029424;28;20021;-76
2023/03/10 05:38:31;;;;;;;41.60;39.30;;;;;;;7.10;87.83;95905.88;5035414;28;20063;-75
2023/03/10 05:40:57;;;;;;;45.30;42.63;;;;;;;7.05;87.79;95902.44;5034512;28;20029;-77
2023/03/10 05:43:22;;;;;;;43.15;41.00;;;;;;;7.10;87.94;95910.41;5043082;28;20037;-76
2023/03/10 05:45:56;;;;;;;43.30;40.90;;;;;;;7.18;87.67;95917.88;5033556;28;20055;-77
2023/03/10 05:48:22;;;;;;;45.00;42.75;;;;;;;7.09;87.74;95906.97;5018600;28;20029;-77
2023/03/10 05:51:02;;;;;;;42.80;40.53;;;;;;;7.14;87.00;95916.81;5037389;28;20187;-77
2023/03/10 05:53:29;;;;;;;40.40;37.95;;;;;;;7.15;87.78;95915.72;5046444;28;20064;-77
2023/03/10 05:55:55;;;;;;;42.42;40.25;;;;;;;7.16;88.17;95930.72;5032425;28;20511;-78
2023/03/10 05:58:22;;;;;;;38.10;36.00;;;;;;;7.14;88.94;95935.56;5017316;28;20029;-77
2023/03/10 06:00:47;;;;;;;39.63;37.30;;;;;;;7.12;88.50;95927.00;5029931;28;20055;-77
2023/03/10 06:03:12;;;;;;;40.30;37.95;;;;;;;7.16;89.02;95925.38;5036031;28;20135;-77
2023/03/10 06:05:38;;;;;;;41.00;38.83;;;;;;;7.10;88.78;95921.13;5015772;28;20032;-78
2023/03/10 06:08:04;;;;;;;41.65;39.42;;;;;;;7.07;89.76;95927.81;5046477;28;20126;-78
2023/03/10 06:10:29;;;;;;;41.72;39.38;;;;;;;7.14;89.94;95922.19;5037436;28;20476;-77
2023/03/10 06:12:55;;;;;;;41.42;38.97;;;;;;;7.11;89.00;95926.22;5037765;28;20068;-77
2023/03/10 06:15:20;;;;;;;39.80;37.38;;;;;;;7.03;90.43;95925.97;5041038;28;20033;-77
2023/03/10 06:17:46;;;;;;;39.92;37.50;;;;;;;7.03;89.33;95939.34;5034004;28;20040;-78
2023/03/10 06:20:11;;;;;;;38.40;35.90;;;;;;;7.13;90.66;95936.63;5030124;28;20025;-77
2023/03/10 06:22:37;;;;;;;39.75;37.55;;;;;;;7.10;90.19;95915.75;5032974;28;20049;-74
2023/03/10 06:25:03;;;;;;;40.47;37.92;;;;;;;7.17;89.61;95921.59;5032138;28;20397;-79
2023/03/10 06:27:30;;;;;;;40.67;38.33;;;;;;;7.26;89.94;95919.97;5034614;28;20087;-78
2023/03/10 06:29:55;;;;;;;39.88;37.58;;;;;;;7.22;89.27;95917.03;5016834;28;20029;-77
2023/03/10 06:32:21;;;;;;;39.33;36.97;;;;;;;7.17;90.13;95916.25;5015845;28;20033;-77
2023/03/10 06:34:46;;;;;;;39.53;37.33;;;;;;;7.26;89.51;95928.00;5025921;28;20111;-77
2023/03/10 06:37:11;;;;;;;41.28;38.40;;;;;;;7.19;89.83;95920.25;5054546;28;20377;-78
2023/03/10 06:39:38;;;;;;;42.47;40.05;;;;;;;7.31;89.04;95909.19;5014678;28;20025;-77
2023/03/10 06:42:04;;;;;;;44.55;42.28;;;;;;;7.25;89.96;95915.66;5025747;28;20033;-77
2023/03/10 06:44:29;;;;;;;44.88;42.47;;;;;;;7.28;89.82;95905.19;5038348;28;20024;-77
2023/03/10 06:46:55;;;;;;;46.67;44.33;;;;;;;7.23;89.59;95904.44;5033316;28;20067;-78
2023/03/10 06:49:20;;;;;;;45.47;43.28;;;;;;;7.28;89.41;95907.09;5050205;28;20067;-78
2023/03/10 06:51:45;;;;;;;44.15;41.78;;;;;;;7.32;89.70;95918.84;5035453;28;20029;-77
2023/03/10 06:54:11;;;;;;;45.88;43.17;;;;;;;7.33;90.16;95909.69;5032262;28;20435;-78
2023/03/10 06:56:36;;;;;;;47.15;44.22;;;;;;;7.36;89.49;95903.78;5055268;28;20120;-78
2023/03/10 06:59:02;;;;;;;47.08;44.22;;;;;;;7.31;89.77;95911.88;5032720;28;20112;-78
2023/03/10 07:01:30;;;;;;;48.28;45.25;;;;;;;7.36;88.97;95898.44;5015572;28;20079;-77
2023/03/10 07:03:56;;;;;;;50.13;47.13;;;;;;;7.38;89.83;95912.34;5015833;28;20500;-78
2023/03/10 07:06:22;;;;;;;47.67;44.88;;;;;;;7.46;88.66;95909.09;5025384;28;20447;-78
2023/03/10 07:08:48;;;;;;;54.97;51.63;;;;;;;7.39;89.35;95905.94;5032666;28;20032;-78
2023/03/10 07:11:14;;;;;;;62.47;58.55;;;;;;;7.43;88.58;95904.28;5010830;28;20639;-78
2023/03/10 07:13:40;;;;;;;45.40;42.80;;;;;;;7.52;88.36;95898.03;5038864;28;20028;-77
2023/03/10 07:16:06;;;;;;;45.95;43.47;;;;;;;7.58;88.51;95901.47;5030598;28;20606;-77
2023/03/10 07:18:31;;;;;;;43.45;40.97;;;;;;;7.49;87.37;95892.47;5038122;28;20487;-78
2023/03/10 07:20:57;;;;;;;44.28;42.00;;;;;;;7.60;88.19;95894.78;5041824;28;20040;-78
2023/03/10 07:23:23;;;;;;;44.95;42.55;;;;;;;7.57;87.83;95900.69;5032905;28;20040;-77
2023/03/10 07:25:53;;;;;;;45.10;42.70;;;;;;;7.66;88.24;95898.19;5031870;28;20041;-78
2023/03/10 07:28:18;;;;;;;42.22;40.03;;;;;;;7.73;88.33;95895.97;5056616;28;20089;-77
2023/03/10 07:30:44;;;;;;;42.40;40.08;;;;;;;7.79;88.53;95902.91;5033357;28;20502;-78
2023/03/10 07:33:10;;;;;;;42.13;39.92;;;;;;;7.79;88.81;95904.78;5049268;28;20033;-76
2023/03/10 07:35:35;;;;;;;41.92;39.78;;;;;;;7.89;87.77;95900.09;5013926;28;20026;-76
2023/03/10 07:38:01;;;;;;;43.53;41.13;;;;;;;8.02;87.61;95896.75;5030512;28;20503;-77
2023/03/10 07:40:27;;;;;;;44.17;41.65;;;;;;;8.03;87.53;95897.53;5031975;28;20056;-78
2023/03/10 07:42:53;;;;;;;43.10;40.55;;;;;;;8.11;87.50;95895.06;5030526;28;20038;-78
2023/03/10 07:45:19;;;;;;;45.42;42.95;;;;;;;8.17;87.84;95885.06;5043093;28;20021;-76
2023/03/10 07:47:45;;;;;;;43.08;40.40;;;;;;;8.37;86.37;95892.91;5044538;28;20033;-78
2023/03/10 07:50:10;;;;;;;41.13;38.83;;;;;;;8.42;87.35;95889.38;5045839;28;20112;-78
2023/03/10 07:52:36;;;;;;;43.65;41.35;;;;;;;8.44;87.63;95892.56;5047667;28;20030;-77
2023/03/10 07:55:01;;;;;;;45.38;42.65;;;;;;;8.44;86.59;95887.19;5026233;28;20111;-79
2023/03/10 07:57:27;;;;;;;41.55;39.35;;;;;;;8.38;86.99;95888.34;5063130;28;20459;-79
2023/03/10 07:59:52;;;;;;;45.45;42.50;;;;;;;8.53;87.15;95885.47;5063511;28;20086;-78
2023/03/10 08:02:18;;;;;;;43.53;41.00;;;;;;;8.70;86.50;95886.59;5036098;28;20041;-78
2023/03/10 08:04:43;;;;;;;42.50;40.10;;;;;;;8.57;87.35;95886.47;5022043;28;20063;-78
2023/03/10 08:07:09;;;;;;;44.78;42.63;;;;;;;8.83;86.07;95893.13;5053759;28;20037;-79
2023/03/10 08:09:35;;;;;;;44.45;42.13;;;;;;;8.81;86.94;95876.50;5020091;28;20112;-78
2023/03/10 08:12:01;;;;;;;43.88;41.80;;;;;;;8.88;87.04;95882.31;5051492;28;20036;-77
2023/03/10 08:14:28;;;;;;;46.42;44.10;;;;;;;9.12;86.08;95891.09;5014330;28;20016;-78
2023/03/10 08:16:55;;;;;;;45.30;43.15;;;;;;;9.29;85.51;95894.03;5020154;28;20038;-78
2023/03/10 08:19:21;;;;;;;45.97;43.80;;;;;;;9.45;85.56;95884.66;5025788;28;20053;-77
2023/03/10 08:21:47;;;;;;;43.92;41.88;;;;;;;9.50;84.92;95879.19;5036011;28;20040;-78
2023/03/10 08:24:12;;;;;;;43.63;41.63;;;;;;;9.56;84.62;95877.22;5027198;28;20481;-77
2023/03/10 08:26:38;;;;;;;42.40;40.28;;;;;;;9.39;84.77;95882.34;5042912;28;20514;-77
2023/03/10 08:29:03;;;;;;;41.90;40.10;;;;;;;9.58;83.86;95891.97;5063178;28;20025;-78
2023/03/10 08:31:28;;;;;;;41.30;39.50;;;;;;;9.48;84.47;95878.69;5039940;28;20097;-77
2023/03/10 08:33:55;;;;;;;40.92;38.92;;;;;;;9.60;84.22;95879.03;5042588;28;20431;-76
2023/03/10 08:36:22;;;;;;;42.97;41.08;;;;;;;9.59;84.55;95880.13;5046814;28;20038;-75
2023/03/10 08:38:49;;;;;;;41.92;40.13;;;;;;;9.62;84.12;95878.72;5027910;28;20025;-76
2023/03/10 08:41:23;;;;;;;40.88;39.05;;;;;;;9.55;84.74;95881.00;5039718;28;20093;-75
2023/03/10 08:43:50;;;;;;;42.08;39.90;;;;;;;9.60;84.17;95873.66;5033201;28;20499;-76
2023/03/10 08:46:17;;;;;;;43.60;41.60;;;;;;;9.72;83.95;95871.31;5014043;28;20048;-76
2023/03/10 08:48:43;;;;;;;41.30;39.40;;;;;;;9.64;83.71;95873.84;5026214;28;20037;-76
2023/03/10 08:51:08;;;;;;;39.83;38.13;;;;;;;9.81;83.49;95863.34;5019462;28;20477;-76
2023/03/10 08:53:36;;;;;;;41.33;39.22;;;;;;;9.68;83.86;95870.28;5045702;28;20037;-74
2023/03/10 08:56:02;;;;;;;39.67;37.85;;;;;;;9.49;83.84;95874.94;5030238;28;20029;-76
2023/03/10 08:58:27;;;;;;;38.92;37.05;;;;;;;9.42;83.87;95874.50;5033150;28;20045;-76
2023/03/10 09:00:53;;;;;;;40.65;38.75;;;;;;;9.50;83.43;95879.19;5022244;28;20025;-76
2023/03/10 09:03:18;;;;;;;36.22;34.63;;;;;;;9.48;83.98;95875.19;5052795;28;20033;-76
2023/03/10 09:05:44;;;;;;;41.03;39.28;;;;;;;9.54;83.43;95880.22;5034039;28;20026;-78
2023/03/10 09:08:09;;;;;;;40.08;38.17;;;;;;;9.62;82.82;95871.47;5017252;28;20407;-77
2023/03/10 09:10:36;;;;;;;35.58;33.88;;;;;;;9.59;82.64;95874.75;5032757;28;20017;-78
2023/03/10 09:13:01;;;;;;;34.53;33.13;;;;;;;9.74;81.61;95869.13;5046476;28;20130;-77
2023/03/10 09:15:26;;;;;;;38.92;37.05;;;;;;;9.93;81.81;95876.31;5041902;28;20029;-78
2023/03/10 09:17:52;;;;;;;34.50;33.05;;;;;;;9.96;80.14;95881.09;5042876;28;20029;-78
2023/03/10 09:20:20;;;;;;;31.27;29.85;;;;;;;9.94;81.50;95883.28;5048898;28;20026;-77
2023/03/10 09:22:46;;;;;;;34.05;32.40;;;;;;;9.93;81.43;95881.69;5018681;28;20087;-78
2023/03/10 09:25:11;;;;;;;32.65;31.05;;;;;;;9.99;80.89;95875.91;5046027;28;20470;-77
2023/03/10 09:27:36;;;;;;;27.30;26.00;;;;;;;10.07;80.50;95871.75;5022280;28;20418;-78
2023/03/10 09:30:02;;;;;;;27.45;26.25;;;;;;;10.25;79.57;95873.56;5035299;28;20037;-79
2023/03/10 09:32:28;;;;;;;24.48;23.20;;;;;;;10.26;79.42;95861.72;5027769;28;20040;-77
2023/03/10 09:34:53;;;;;;;26.58;25.08;;;;;;;10.51;79.06;95871.97;5037691;28;20029;-79
2023/03/10 09:37:18;;;;;;;26.85;25.38;;;;;;;10.59;79.01;95873.16;5035028;28;20088;-78
2023/03/10 09:39:44;;;;;;;23.65;22.35;;;;;;;10.81;78.14;95857.88;5038010;28;20119;-78
2023/03/10 09:42:24;;;;;;;25.48;24.15;;;;;;;10.70;79.05;95864.56;5026615;28;20037;-78
2023/03/10 09:45:02;;;;;;;22.95;21.75;;;;;;;11.00;77.49;95865.78;5022610;28;20044;-77
2023/03/10 09:47:41;;;;;;;27.15;25.50;;;;;;;11.03;77.11;95857.91;5050888;28;20056;-75
2023/03/10 09:50:27;;;;;;;23.77;22.38;;;;;;;11.28;77.79;95853.03;5054732;28;20090;-78
2023/03/10 09:52:58;;;;;;;19.00;17.75;;;;;;;11.17;77.48;95851.66;5042382;28;20033;-78
2023/03/10 09:55:33;;;;;;;16.55;15.50;;;;;;;11.08;77.00;95855.06;5025791;28;20037;-79
2023/03/10 09:57:59;;;;;;;13.70;12.88;;;;;;;10.86;76.92;95841.59;5035541;28;20504;-78
2023/03/10 10:00:44;;;;;;;9.85;9.15;;;;;;;11.05;76.89;95834.16;5031482;28;20136;-78
2023/03/10 10:03:16;;;;;;;21.42;19.40;;;;;;;10.92;76.77;95845.75;5030222;28;20507;-79
2023/03/10 10:05:42;;;;;;;15.82;14.70;;;;;;;10.63;77.41;95842.66;5042909;28;20028;-78
2023/03/10 10:08:25;;;;;;;15.32;14.27;;;;;;;10.80;77.24;95847.41;5034840;28;20087;-78
2023/03/10 10:10:55;;;;;;;7.80;7.30;;;;;;;10.95;75.50;95839.78;5025741;28;20026;-78
2023/03/10 10:13:23;;;;;;;10.00;9.43;;;;;;;11.11;75.89;95840.22;5044134;28;20453;-79
2023/03/10 10:16:29;;;;;;;13.07;12.30;;;;;;;11.27;74.30;95841.44;5025141;28;20045;-78
2023/03/10 10:19:01;;;;;;;14.77;13.38;;;;;;;11.25;74.71;95832.09;5057022;28;20495;-77
2023/03/10 10:21:56;;;;;;;13.15;11.95;;;;;;;11.13;75.50;95814.56;5016220;28;20037;-78
2023/03/10 10:24:22;;;;;;;10.15;9.25;;;;;;;11.01;74.81;95803.56;5058181;28;20135;-77
2023/03/10 10:26:47;;;;;;;7.43;6.93;;;;;;;10.89;75.58;95819.47;5029259;28;20109;-76
2023/03/10 10:29:26;;;;;;;9.98;9.18;;;;;;;10.86;75.14;95825.44;5023981;28;20123;-76
2023/03/10 10:32:02;;;;;;;11.00;10.30;;;;;;;10.84;75.82;95827.66;5041193;28;20033;-78
2023/03/10 10:34:28;;;;;;;5.95;5.55;;;;;;;10.68;73.97;95829.09;5050703;28;20052;-79
2023/03/10 10:36:55;;;;;;;5.20;4.80;;;;;;;10.70;74.29;95836.84;5042540;28;20048;-78
2023/03/10 10:39:24;;;;;;;6.90;6.40;;;;;;;10.76;75.36;95825.66;5067410;28;20036;-79
2023/03/10 10:41:50;;;;;;;9.30;8.43;;;;;;;10.50;76.48;95827.34;5062567;28;20036;-78
2023/03/10 10:44:17;;;;;;;11.60;10.88;;;;;;;10.40;77.35;95827.53;5053594;28;20037;-77
2023/03/10 10:46:54;;;;;;;10.85;10.20;;;;;;;10.11;77.70;95935.41;5042997;28;20096;-78
2023/03/10 10:49:27;;;;;;;10.57;9.52;;;;;;;7.47;89.22;95932.09;5019607;28;20083;-77
2023/03/10 10:52:05;;;;;;;22.88;21.67;;;;;;;7.38;86.94;95923.88;5040104;28;20029;-78
2023/03/10 10:54:38;;;;;;;27.35;26.05;;;;;;;7.28;88.18;95912.44;5016461;28;20034;-78
2023/03/10 10:57:19;;;;;;;29.52;28.40;;;;;;;7.26;87.07;95910.03;5043817;28;20064;-78
2023/03/10 10:59:44;;;;;;;33.28;31.73;;;;;;;7.16;87.65;95893.25;5032636;28;20033;-78
2023/03/10 11:02:29;;;;;;;30.85;29.50;;;;;;;7.45;88.42;95899.44;5000620;28;20030;-78
2023/03/10 11:05:08;;;;;;;31.95;30.65;;;;;;;7.67;88.05;95899.78;5053447;28;20037;-78
2023/03/10 11:07:34;;;;;;;32.35;30.95;;;;;;;7.85;86.96;95880.31;5016759;28;20051;-78
2023/03/10 11:09:59;;;;;;;37.22;35.63;;;;;;;8.03;86.60;95876.91;5029926;28;20116;-78
2023/03/10 11:12:37;;;;;;;35.72;34.05;;;;;;;8.43;86.01;95880.22;5046127;28;20071;-78
2023/03/10 11:17:32;;;;;;;38.65;36.95;;;;;;;8.58;84.90;95894.25;5047826;28;20045;-75
2023/03/10 11:20:14;;;;;;;37.78;36.10;;;;;;;8.70;85.57;95899.22;5050011;28;20024;-75
2023/03/10 11:22:50;;;;;;;40.22;38.30;;;;;;;8.80;84.81;95893.69;5050358;28;20044;-75
2023/03/10 11:25:22;;;;;;;40.33;38.33;;;;;;;9.07;85.29;95901.91;5048472;28;20036;-75
2023/03/10 11:28:10;;;;;;;42.58;40.35;;;;;;;8.99;84.94;95905.22;5036792;28;20038;-74
2023/03/10 11:30:37;;;;;;;39.38;37.58;;;;;;;9.20;84.74;95895.78;5033406;28;20033;-75
2023/03/10 11:33:23;;;;;;;41.00;39.17;;;;;;;9.40;83.79;95894.69;5030940;28;20101;-75